메인 페이지
METAR-TAF:

METAR-TAF

공항 :

피츠버그 국제공항

피츠버그, 펜실베이니아, 미국

위도: 40-30-14N, 경도: 080-15-59W, 고도: 366m

현재 날씨관측

예보는 54분 전, 22:51시(UTC)에 발표되었습니다.
동남동7kt
온도 23°C
습도 78%
기압 1009 hPa
시정: 16.1km
고도 2500ft 상공 구름 조금
고도 3800ft 상공 구름 보통
고도 7000ft 상공 구름 많음
고도 13000ft 상공 흐림

METAR: KPIT 222251Z 12007KT 10SM FEW025 SCT038 BKN070 OVC130 23/19 A2980 RMK AO2 LTG DSNT E-SW SLP091 T02280194

시각: 19:45 (23:45 UTC)

예보

예보는 2 시간 49분 전, 20:56시(UTC)에 발표되었습니다.
예보 대상 시간: 22일 21시부터 23일 24시까지 (UTC)
동남동5kt
시정: 10km
고도 3500ft 상공 구름 많음, 적란운.
시계 내 뇌우
일시적
22일 21시부터 22일 23시까지 (UTC)
시정: 6.4km
고도 2500ft 상공 흐림, 적란운.
뇌우, 약한비
23일 0200시부터 (UTC)
5kt
시정: 10km
고도 10000ft 상공 구름 많음
23일 1700시부터 (UTC)
남동8kt
시정: 10km
고도 4000ft 상공 구름 많음, 적란운.
시계 내 뇌우

TAF: KPIT 222056Z 2221/2324 12005KT P6SM VCTS BKN035CB TEMPO 2221/2223 4SM -TSRA OVC025CB FM230200 10005KT P6SM BKN100 FM231700 14008KT P6SM VCTS BKN040CB

4,000개 이상의 공항 관측 자료 및 예보 (METAR 및 TAF 보고).

지도상에서 검색 가능한 기상관측소가 노란 점과 빨간 점으로 표시되어 있습니다.

기상관측소 명을 보려면 표시 위로 마우스를 이동하세요.

날씨 관측과 예보를 보려면 클릭하세요.

지도 변경 : 확대하려면 엑스 표시가 있는 녹색 버튼, 축소하려면 빼기 표시가 있는 녹색 버튼, 다음 페이지의 지도를 보려면 녹색 화살표를 클릭하세요.


METAR-TAF: